(°C)
11°
12°
11°
(°C)
-2°
WSW
WSW
SSW
SW
SW
SSW
SW
(km/h)
6-9
4-9
3-10
4-11
4-11
3-10
3-12
(mm)
0
0
0
0
0
0
0
(%)
0
0
0
0
0
0
0

Elevazione del sole

/ 5.5°
sun-icon
UV 1
07:44
16:55
Luna piena (187°)
17:11
08:30

METAR per Budoia (LIPA)

Ora Condizioni Temperatura/
Punto di rugiada
Vento Visibilità Meteo Nuvole Pressione Cambiamento Grezzo
VFR 0°C / -3°C 30º 4kt >10km - Clouds and Visibility OK 1029 - LIPA 180555Z 03004KT CAVOK M00/M03 Q1029 RMK SKC VIS MIN 9999 WIND THR05 /////KT WIND THR23 /////KT A3040 BLU
VFR 0°C / -3°C 340º 3kt >10km - Clouds and Visibility OK 1028 - LIPA 180455Z 34003KT CAVOK 00/M03 Q1028 RMK SKC VIS MIN 9999 WIND THR05 /////KT WIND THR23 /////KT A3038 BLU
VFR 0°C / -3°C 20º 4kt >10km - Clouds and Visibility OK 1028 - LIPA 180355Z 02004KT CAVOK 00/M03 Q1028 RMK SKC VIS MIN 9999 WIND THR05 /////KT WIND THR23 /////KT A3037 BLU
IFR 2°C / 2°C 360º 2kt 3000m Mist Vertical Visibility of 0ft. 1023 - LIPA 171855Z 36002KT 3000 BR NSC 02/02 Q1023 RMK SKC VIS MIN 3000 WIND THR05 /////KT WIND THR23 /////KT A3022 YLO
IFR 3°C / 2°C 30º 5kt 3000m Mist Vertical Visibility of 0ft. 1023 - LIPA 171755Z 03005KT 3000 BR NSC 03/02 Q1023 RMK SKC VIS MIN 3000 WIND THR05 /////KT WIND THR23 /////KT A2984 YLO
IFR 5°C / 4°C 360º 4kt 4000m Mist Vertical Visibility of 0ft. 1022 - LIPA 171655Z 36004KT 4000 BR NSC 05/04 Q1022 RMK SKC VIS MIN 3500SW WIND THR05 /////KT WIND THR23 /////KT A3020 YLO
MVFR 8°C / 6°C 100º 3kt 8000m - Clear 1022 - LIPA 171555Z 10003KT 8000 NSC 08/06 Q1022 RMK SKC VIS MIN 6000SW WIND THR05 /////KT WIND THR23 /////KT A3021 WHT
VFR 10°C / 5°C 150º 2kt 9000m - Clear 1022 - LIPA 171455Z 15002KT 9000 NSC 10/05 Q1022 RMK SKC VIS MIN 6000SW WIND THR05 /////KT WIND THR23 /////KT A3020 WHT
MVFR 10°C / 5°C 190º 4kt 8000m - Clear 1023 - LIPA 171355Z 19004KT 8000 NSC 10/05 Q1023 RMK SKC VIS MIN 6000SW WIND THR05 /////KT WIND THR23 /////KT A3021 WHT
VFR 10°C / 5°C 200º 4kt 9000m - Clear 1024 - LIPA 171255Z 20004KT 9000 NSC 10/05 Q1024 RMK SKC VIS MIN 6000SW WIND THR05 /////KT WIND THR23 /////KT A3025 BLU
VFR 9°C / 5°C 210º 4kt >10km - Clouds and Visibility OK 1025 - LIPA 171155Z 21004KT CAVOK 09/05 Q1025 RMK SKC VIS MIN 9999 WIND THR05 /////KT WIND THR23 /////KT A3029 BLU
VFR 8°C / 5°C 240º 1kt >10km - Clouds and Visibility OK 1025 - LIPA 171055Z 24001KT CAVOK 08/05 Q1025 RMK FEW FEW150 VIS MIN 9999 WIND THR05 /////KT WIND THR23 /////KT A3028 BLU
VFR 5°C / 4°C 180º 2kt >10km - Broken Clouds 9000ft 1025 - LIPA 170855Z 18002KT 9999 BKN090 05/04 Q1025 RMK BKN VIS MIN 9999 WIND THR05 /////KT WIND THR23 /////KT A3029 BLU
VFR 1°C / 1°C 360º 2kt >10km - Scattered Clouds 9000ft 1026 - LIPA 170755Z 36002KT 9999 SCT090 01/01 Q1026 RMK SCT VIS MIN 9999 WIND THR05 /////KT WIND THR23 /////KT A3030 BLU
VFR -1°C / -1°C 10º 4kt >10km - Few Clouds 8000ft 1024 - LIPA 170655Z 01004KT 9999 FEW080 M01/M01 Q1024 RMK SCT SCT200 VIS MIN 9999 WIND THR05 /////KT WIND THR23 /////KT A3026 BLU
VFR 0°C / 0°C 340º 5kt >10km - Clouds and Visibility OK 1024 - LIPA 170455Z 34005KT CAVOK 00/M00 Q1024 RMK SKC VIS MIN 8000N WIND THR05 /////KT WIND THR23 /////KT A3026 BLU
VFR 0°C / 0°C 360º 3kt >10km - Clouds and Visibility OK 1024 - LIPA 170355Z 36003KT CAVOK 00/M00 Q1024 RMK SKC VIS MIN 9999 WIND THR05 /////KT WIND THR23 /////KT A3026 BLU
VFR 5°C / 2°C 20º 2kt >10km - Clouds and Visibility OK 1026 - LIPA 141855Z 02002KT CAVOK 05/02 Q1026 RMK SKC VIS MIN 9999 WIND THR05 /////KT WIND THR23 /////KT A3032 BLU
VFR 5°C / 1°C 340º 3kt >10km - Clouds and Visibility OK 1026 - LIPA 141755Z 34003KT CAVOK 05/01 Q1026 RMK SKC VIS MIN 9999 WIND THR05 /////KT WIND THR23 /////KT A3032 BLU
VFR 8°C / 1°C 330º 3kt >10km - Clouds and Visibility OK 1026 - LIPA 141655Z 33003KT CAVOK 08/01 Q1026 RMK SKC VIS MIN 9999 WIND THR05 /////KT WIND THR23 /////KT A3032 BLU
VFR 11°C / -1°C 200º 2kt >10km - Clouds and Visibility OK 1027 - LIPA 141455Z 20002KT CAVOK 11/M01 Q1027 RMK SKC VIS MIN 9999 WIND THR05 /////KT WIND THR23 /////KT A3034 BLU
VFR 10°C / -1°C 250º 3kt >10km - Clouds and Visibility OK 1027 - LIPA 141355Z 25003KT CAVOK 10/M01 Q1027 RMK SKC VIS MIN 9999 WIND THR05 /////KT WIND THR23 /////KT A3034 BLU
VFR 11°C / -1°C 230º 4kt >10km - Clouds and Visibility OK 1027 - LIPA 141255Z 23004KT CAVOK 11/M01 Q1027 RMK SKC VIS MIN 9999 WIND THR05 /////KT WIND THR23 /////KT A3036 BLU
VFR 9°C / -1°C 210º 3kt >10km - Clouds and Visibility OK 1029 - LIPA 141155Z 21003KT CAVOK 09/M01 Q1029 RMK SKC VIS MIN 9999 WIND THR05 /////KT WIND THR23 /////KT A3039 BLU

VFR

0°C / -3°C

[Più]
Vento 30º 4kt
Visibilità >10km
Meteo -
Nuvole Clouds and Visibility OK
Pressione 1029
Cambiamento -
Grezzo LIPA 180555Z 03004KT CAVOK M00/M03 Q1029 RMK SKC VIS MIN 9999 WIND THR05 /////KT WIND THR23 /////KT A3040 BLU

VFR

0°C / -3°C

[Più]
Vento 340º 3kt
Visibilità >10km
Meteo -
Nuvole Clouds and Visibility OK
Pressione 1028
Cambiamento -
Grezzo LIPA 180455Z 34003KT CAVOK 00/M03 Q1028 RMK SKC VIS MIN 9999 WIND THR05 /////KT WIND THR23 /////KT A3038 BLU

VFR

0°C / -3°C

[Più]
Vento 20º 4kt
Visibilità >10km
Meteo -
Nuvole Clouds and Visibility OK
Pressione 1028
Cambiamento -
Grezzo LIPA 180355Z 02004KT CAVOK 00/M03 Q1028 RMK SKC VIS MIN 9999 WIND THR05 /////KT WIND THR23 /////KT A3037 BLU

IFR

2°C / 2°C

[Più]
Vento 360º 2kt
Visibilità 3000m
Meteo Mist
Nuvole Vertical Visibility of 0ft.
Pressione 1023
Cambiamento -
Grezzo LIPA 171855Z 36002KT 3000 BR NSC 02/02 Q1023 RMK SKC VIS MIN 3000 WIND THR05 /////KT WIND THR23 /////KT A3022 YLO

IFR

3°C / 2°C

[Più]
Vento 30º 5kt
Visibilità 3000m
Meteo Mist
Nuvole Vertical Visibility of 0ft.
Pressione 1023
Cambiamento -
Grezzo LIPA 171755Z 03005KT 3000 BR NSC 03/02 Q1023 RMK SKC VIS MIN 3000 WIND THR05 /////KT WIND THR23 /////KT A2984 YLO

IFR

5°C / 4°C

[Più]
Vento 360º 4kt
Visibilità 4000m
Meteo Mist
Nuvole Vertical Visibility of 0ft.
Pressione 1022
Cambiamento -
Grezzo LIPA 171655Z 36004KT 4000 BR NSC 05/04 Q1022 RMK SKC VIS MIN 3500SW WIND THR05 /////KT WIND THR23 /////KT A3020 YLO

MVFR

8°C / 6°C

[Più]
Vento 100º 3kt
Visibilità 8000m
Meteo -
Nuvole Clear
Pressione 1022
Cambiamento -
Grezzo LIPA 171555Z 10003KT 8000 NSC 08/06 Q1022 RMK SKC VIS MIN 6000SW WIND THR05 /////KT WIND THR23 /////KT A3021 WHT

VFR

10°C / 5°C

[Più]
Vento 150º 2kt
Visibilità 9000m
Meteo -
Nuvole Clear
Pressione 1022
Cambiamento -
Grezzo LIPA 171455Z 15002KT 9000 NSC 10/05 Q1022 RMK SKC VIS MIN 6000SW WIND THR05 /////KT WIND THR23 /////KT A3020 WHT

MVFR

10°C / 5°C

[Più]
Vento 190º 4kt
Visibilità 8000m
Meteo -
Nuvole Clear
Pressione 1023
Cambiamento -
Grezzo LIPA 171355Z 19004KT 8000 NSC 10/05 Q1023 RMK SKC VIS MIN 6000SW WIND THR05 /////KT WIND THR23 /////KT A3021 WHT

VFR

10°C / 5°C

[Più]
Vento 200º 4kt
Visibilità 9000m
Meteo -
Nuvole Clear
Pressione 1024
Cambiamento -
Grezzo LIPA 171255Z 20004KT 9000 NSC 10/05 Q1024 RMK SKC VIS MIN 6000SW WIND THR05 /////KT WIND THR23 /////KT A3025 BLU

VFR

9°C / 5°C

[Più]
Vento 210º 4kt
Visibilità >10km
Meteo -
Nuvole Clouds and Visibility OK
Pressione 1025
Cambiamento -
Grezzo LIPA 171155Z 21004KT CAVOK 09/05 Q1025 RMK SKC VIS MIN 9999 WIND THR05 /////KT WIND THR23 /////KT A3029 BLU

VFR

8°C / 5°C

[Più]
Vento 240º 1kt
Visibilità >10km
Meteo -
Nuvole Clouds and Visibility OK
Pressione 1025
Cambiamento -
Grezzo LIPA 171055Z 24001KT CAVOK 08/05 Q1025 RMK FEW FEW150 VIS MIN 9999 WIND THR05 /////KT WIND THR23 /////KT A3028 BLU

VFR

5°C / 4°C

[Più]
Vento 180º 2kt
Visibilità >10km
Meteo -
Nuvole Broken Clouds 9000ft
Pressione 1025
Cambiamento -
Grezzo LIPA 170855Z 18002KT 9999 BKN090 05/04 Q1025 RMK BKN VIS MIN 9999 WIND THR05 /////KT WIND THR23 /////KT A3029 BLU

VFR

1°C / 1°C

[Più]
Vento 360º 2kt
Visibilità >10km
Meteo -
Nuvole Scattered Clouds 9000ft
Pressione 1026
Cambiamento -
Grezzo LIPA 170755Z 36002KT 9999 SCT090 01/01 Q1026 RMK SCT VIS MIN 9999 WIND THR05 /////KT WIND THR23 /////KT A3030 BLU

VFR

-1°C / -1°C

[Più]
Vento 10º 4kt
Visibilità >10km
Meteo -
Nuvole Few Clouds 8000ft
Pressione 1024
Cambiamento -
Grezzo LIPA 170655Z 01004KT 9999 FEW080 M01/M01 Q1024 RMK SCT SCT200 VIS MIN 9999 WIND THR05 /////KT WIND THR23 /////KT A3026 BLU

VFR

0°C / 0°C

[Più]
Vento 340º 5kt
Visibilità >10km
Meteo -
Nuvole Clouds and Visibility OK
Pressione 1024
Cambiamento -
Grezzo LIPA 170455Z 34005KT CAVOK 00/M00 Q1024 RMK SKC VIS MIN 8000N WIND THR05 /////KT WIND THR23 /////KT A3026 BLU

VFR

0°C / 0°C

[Più]
Vento 360º 3kt
Visibilità >10km
Meteo -
Nuvole Clouds and Visibility OK
Pressione 1024
Cambiamento -
Grezzo LIPA 170355Z 36003KT CAVOK 00/M00 Q1024 RMK SKC VIS MIN 9999 WIND THR05 /////KT WIND THR23 /////KT A3026 BLU

VFR

5°C / 2°C

[Più]
Vento 20º 2kt
Visibilità >10km
Meteo -
Nuvole Clouds and Visibility OK
Pressione 1026
Cambiamento -
Grezzo LIPA 141855Z 02002KT CAVOK 05/02 Q1026 RMK SKC VIS MIN 9999 WIND THR05 /////KT WIND THR23 /////KT A3032 BLU

VFR

5°C / 1°C

[Più]
Vento 340º 3kt
Visibilità >10km
Meteo -
Nuvole Clouds and Visibility OK
Pressione 1026
Cambiamento -
Grezzo LIPA 141755Z 34003KT CAVOK 05/01 Q1026 RMK SKC VIS MIN 9999 WIND THR05 /////KT WIND THR23 /////KT A3032 BLU

VFR

8°C / 1°C

[Più]
Vento 330º 3kt
Visibilità >10km
Meteo -
Nuvole Clouds and Visibility OK
Pressione 1026
Cambiamento -
Grezzo LIPA 141655Z 33003KT CAVOK 08/01 Q1026 RMK SKC VIS MIN 9999 WIND THR05 /////KT WIND THR23 /////KT A3032 BLU

VFR

11°C / -1°C

[Più]
Vento 200º 2kt
Visibilità >10km
Meteo -
Nuvole Clouds and Visibility OK
Pressione 1027
Cambiamento -
Grezzo LIPA 141455Z 20002KT CAVOK 11/M01 Q1027 RMK SKC VIS MIN 9999 WIND THR05 /////KT WIND THR23 /////KT A3034 BLU

VFR

10°C / -1°C

[Più]
Vento 250º 3kt
Visibilità >10km
Meteo -
Nuvole Clouds and Visibility OK
Pressione 1027
Cambiamento -
Grezzo LIPA 141355Z 25003KT CAVOK 10/M01 Q1027 RMK SKC VIS MIN 9999 WIND THR05 /////KT WIND THR23 /////KT A3034 BLU

VFR

11°C / -1°C

[Più]
Vento 230º 4kt
Visibilità >10km
Meteo -
Nuvole Clouds and Visibility OK
Pressione 1027
Cambiamento -
Grezzo LIPA 141255Z 23004KT CAVOK 11/M01 Q1027 RMK SKC VIS MIN 9999 WIND THR05 /////KT WIND THR23 /////KT A3036 BLU

VFR

9°C / -1°C

[Più]
Vento 210º 3kt
Visibilità >10km
Meteo -
Nuvole Clouds and Visibility OK
Pressione 1029
Cambiamento -
Grezzo LIPA 141155Z 21003KT CAVOK 09/M01 Q1029 RMK SKC VIS MIN 9999 WIND THR05 /////KT WIND THR23 /////KT A3039 BLU

TAF per Budoia (LIPA)

From till


From till Wind variable 3kt. Visibility 10km or more. Scattered Clouds 2500ft.

Grezzo: TAF LIPA 180500Z 1806/1815 VRB03KT 9999 SCT025

Radar e nowcasting per Budoia

Pioviggine
Lieve
Moderato
Forte
Molto forte
Grandine

Il segnaposto è situato a Budoia. Questa animazione mostra il radar delle precipitazioni per l'ultima ora, nonché una previsione 1h. Una pioviggine o una leggera caduta di neve potrebbero essere invisibili per il radar. L'intensità delle precipitazioni è codificata a colori, dal blu chiaro all'arancione.

Tempo in atto per Budoia: immagine satellitare e pioggia, Italia

Il segnaposto è situato a Budoia. [Più]

L'immagine satellitare in tempo reale combina la luce visibile durante il giorno con la radiazione infrarossa durante la notte. Di notte l'immagine non è scura poiché i raggi infrarossi possono rilevare differenze di temperatura. Purtroppo, le nuvole basse e la nebbia sono difficili da distinguere dalla temperatura del suolo e possono pertanto essere quasi invisibili durante la notte. Le immagini satellitari Meteosat per l'Europa vengono aggiornate in tempo reale ogni 5 minuti. Le immagini GOES-16 / GOES-17 (Nord e Sud America) e Himawari (Asia) vengono aggiornate ogni 10 minuti.

Le precipitazioni sono stimate da radar e satellite. Una precipitazione notturna stimata da satellite è meno accurata di una diurna. Le croci arancioni identificano i fulmini caduti (in Europa).

Copyright 2022 EUMETSAT / meteoblue. Fulminazioni fornite da nowcast.